Time;durP1;ratioP1;P1;durP2;ratioP2;P2;SDS_P1;SDS_P2;PMS_P1;PMS_P2;Temp;Humidity;BMP_temperature;BMP_pressure;BME280_temperature;BME280_humidity;BME280_pressure;Samples;Min_cycle;Max_cycle;Signal;HPM_P1;HPM_P2
2024/04/16 00:02:19;;;;;;;8.52;1.65;;;7.30;84.70;;;;;;5372492;26;19996;-65
2024/04/16 00:04:44;;;;;;;6.32;1.40;;;7.30;84.70;;;;;;5374873;26;20354;-64
2024/04/16 00:07:10;;;;;;;7.25;1.67;;;7.30;84.60;;;;;;5362612;26;20021;-64
2024/04/16 00:09:35;;;;;;;4.38;1.30;;;7.30;84.50;;;;;;5358094;26;19996;-63
2024/04/16 00:12:01;;;;;;;6.70;1.50;;;7.40;84.40;;;;;;5356412;26;20547;-63
2024/04/16 00:14:27;;;;;;;4.20;1.40;;;7.40;84.30;;;;;;5368606;26;20011;-64
2024/04/16 00:16:52;;;;;;;6.55;1.63;;;7.50;84.20;;;;;;5365328;26;20028;-64
2024/04/16 00:19:18;;;;;;;5.88;1.80;;;7.50;84.10;;;;;;5374777;26;20055;-64
2024/04/16 00:21:43;;;;;;;7.53;1.45;;;7.50;84.00;;;;;;5368138;26;20046;-65
2024/04/16 00:24:09;;;;;;;5.80;1.60;;;7.60;83.90;;;;;;5367232;26;20009;-65
2024/04/16 00:26:34;;;;;;;4.30;1.55;;;7.60;83.80;;;;;;5365225;26;20004;-65
2024/04/16 00:29:00;;;;;;;7.97;1.50;;;7.70;83.60;;;;;;5374632;26;20475;-64
2024/04/16 00:31:26;;;;;;;8.25;1.75;;;7.70;83.40;;;;;;5355398;26;20012;-63
2024/04/16 00:33:51;;;;;;;8.68;1.77;;;7.80;83.30;;;;;;5364798;26;20000;-60
2024/04/16 00:36:17;;;;;;;6.15;1.52;;;7.80;83.20;;;;;;5373164;26;20004;-64
2024/04/16 00:38:42;;;;;;;6.40;1.65;;;7.80;83.20;;;;;;5354607;26;20051;-60
2024/04/16 00:41:08;;;;;;;9.43;1.60;;;7.80;83.10;;;;;;5369391;26;20000;-64
2024/04/16 00:43:33;;;;;;;5.05;1.38;;;7.90;83.00;;;;;;5371214;26;20651;-63
2024/04/16 00:46:00;;;;;;;7.20;1.80;;;7.90;82.90;;;;;;5366885;26;20069;-63
2024/04/16 00:48:27;;;;;;;4.90;1.10;;;7.90;82.80;;;;;;5370889;26;20078;-61
2024/04/16 00:50:55;;;;;;;4.63;1.10;;;8.00;82.70;;;;;;5354039;26;20000;-62
2024/04/16 00:53:22;;;;;;;6.15;1.70;;;8.00;82.60;;;;;;5362330;26;19993;-63
2024/04/16 00:55:47;;;;;;;5.43;1.58;;;8.00;82.40;;;;;;5372663;26;20450;-63
2024/04/16 00:58:16;;;;;;;4.25;1.30;;;8.10;82.30;;;;;;5360666;26;20044;-63
2024/04/16 01:00:42;;;;;;;5.82;1.40;;;8.10;82.20;;;;;;5357826;26;20003;-62
2024/04/16 01:03:08;;;;;;;4.68;1.33;;;8.10;82.10;;;;;;5365013;26;20004;-62
2024/04/16 01:05:34;;;;;;;6.88;1.60;;;8.10;81.90;;;;;;5351131;26;20525;-63
2024/04/16 01:08:00;;;;;;;7.95;1.75;;;8.10;81.80;;;;;;5358250;26;20005;-61
2024/04/16 01:10:26;;;;;;;7.63;1.30;;;8.00;81.70;;;;;;5353694;26;20340;-60
2024/04/16 01:12:52;;;;;;;3.85;1.10;;;8.10;81.70;;;;;;5367712;26;20068;-63
2024/04/16 01:15:17;;;;;;;5.38;1.55;;;8.10;81.70;;;;;;5362677;26;20008;-63
2024/04/16 01:17:43;;;;;;;4.47;1.38;;;8.00;81.60;;;;;;5352542;26;20000;-62
2024/04/16 01:20:09;;;;;;;4.32;1.63;;;8.00;81.70;;;;;;5365546;26;19996;-62
2024/04/16 01:22:35;;;;;;;4.40;1.85;;;8.00;81.70;;;;;;5363992;26;20016;-63
2024/04/16 01:25:01;;;;;;;4.93;1.30;;;8.00;81.80;;;;;;5364303;26;20000;-62
2024/04/16 01:27:26;;;;;;;5.30;1.33;;;8.00;81.90;;;;;;5362193;26;19993;-63
2024/04/16 01:29:52;;;;;;;3.53;1.35;;;8.00;81.90;;;;;;5353220;26;19996;-64
2024/04/16 01:32:18;;;;;;;3.63;1.40;;;8.00;81.90;;;;;;5358930;26;19993;-64
2024/04/16 01:34:44;;;;;;;2.17;1.20;;;8.00;81.70;;;;;;5366266;26;20007;-64
2024/04/16 01:37:09;;;;;;;4.88;1.20;;;8.00;81.60;;;;;;5368118;26;20048;-63
2024/04/16 01:39:35;;;;;;;4.57;1.33;;;8.10;81.60;;;;;;5366767;26;20015;-63
2024/04/16 01:42:00;;;;;;;4.25;1.60;;;8.10;81.50;;;;;;5364292;26;20001;-63
2024/04/16 01:44:26;;;;;;;3.33;1.25;;;8.10;81.40;;;;;;5373291;26;20549;-64
2024/04/16 01:46:51;;;;;;;7.00;1.42;;;8.00;81.50;;;;;;5366483;26;20000;-64
2024/04/16 01:49:17;;;;;;;3.00;1.05;;;8.10;81.50;;;;;;5368168;26;20008;-64
2024/04/16 01:51:43;;;;;;;4.78;1.27;;;8.00;81.50;;;;;;5370198;26;20008;-64
2024/04/16 01:54:08;;;;;;;5.32;1.40;;;8.00;81.60;;;;;;5363314;26;20000;-65
2024/04/16 01:56:34;;;;;;;3.63;1.20;;;8.00;81.70;;;;;;5357740;26;20000;-64
2024/04/16 01:59:00;;;;;;;2.95;1.10;;;8.00;81.90;;;;;;5363152;26;19991;-64
2024/04/16 02:01:25;;;;;;;4.90;1.20;;;7.90;82.00;;;;;;5359023;26;20008;-63
2024/04/16 02:03:51;;;;;;;4.05;1.10;;;7.90;82.00;;;;;;5365027;26;20001;-64
2024/04/16 02:06:16;;;;;;;3.97;1.25;;;7.90;82.00;;;;;;5367462;26;20330;-64
2024/04/16 02:08:42;;;;;;;4.18;0.88;;;7.90;81.90;;;;;;5358085;26;19996;-63
2024/04/16 02:11:07;;;;;;;2.92;0.93;;;7.90;81.90;;;;;;5370992;26;20019;-64
2024/04/16 02:13:33;;;;;;;2.72;1.00;;;7.90;81.90;;;;;;5360463;26;20019;-64
2024/04/16 02:15:58;;;;;;;4.22;0.93;;;7.80;81.80;;;;;;5368442;26;20081;-65
2024/04/16 02:18:24;;;;;;;4.38;1.10;;;7.80;81.90;;;;;;5360476;26;20054;-64
2024/04/16 02:20:49;;;;;;;2.80;1.10;;;7.70;81.90;;;;;;5374049;26;20019;-63
2024/04/16 02:23:15;;;;;;;2.47;0.90;;;7.70;82.00;;;;;;5372244;26;20454;-64
2024/04/16 02:25:47;;;;;;;4.63;0.90;;;7.80;82.00;;;;;;5360692;26;20009;-63
2024/04/16 02:28:13;;;;;;;3.67;0.90;;;7.80;81.90;;;;;;5364813;26;20009;-66
2024/04/16 02:30:39;;;;;;;3.45;0.90;;;7.80;81.80;;;;;;5361075;26;20475;-61
2024/04/16 02:33:04;;;;;;;2.97;0.85;;;7.80;81.80;;;;;;5357274;26;20035;-62
2024/04/16 02:35:33;;;;;;;2.25;1.20;;;7.80;82.00;;;;;;5371426;26;20037;-61
2024/04/16 02:37:59;;;;;;;4.80;0.90;;;7.80;82.20;;;;;;5367269;26;20000;-63
2024/04/16 02:40:24;;;;;;;3.20;0.90;;;7.70;82.40;;;;;;5364380;26;20070;-62
2024/04/16 02:42:50;;;;;;;2.65;0.82;;;7.60;82.60;;;;;;5369499;26;20081;-64
2024/04/16 02:45:15;;;;;;;1.88;0.77;;;7.50;82.80;;;;;;5364689;26;20045;-64
2024/04/16 02:47:41;;;;;;;0.60;0.60;;;7.50;83.00;;;;;;5369559;26;20005;-64
2024/04/16 02:50:07;;;;;;;1.48;0.65;;;7.40;83.30;;;;;;5351446;26;20011;-64
2024/04/16 02:52:32;;;;;;;1.17;0.50;;;7.40;83.40;;;;;;5366660;26;20007;-65
2024/04/16 02:54:58;;;;;;;1.52;0.52;;;7.30;83.10;;;;;;5359190;26;19996;-63
2024/04/16 02:57:24;;;;;;;0.93;0.60;;;7.20;83.70;;;;;;5359834;26;20015;-64
2024/04/16 02:59:49;;;;;;;0.50;0.50;;;7.20;83.80;;;;;;5370494;26;20015;-61
2024/04/16 03:02:15;;;;;;;0.60;0.50;;;7.10;83.90;;;;;;5368254;26;20004;-63
2024/04/16 03:04:41;;;;;;;0.82;0.52;;;7.10;84.10;;;;;;5367289;26;19996;-64
2024/04/16 03:07:06;;;;;;;0.40;0.40;;;7.00;84.20;;;;;;5359156;26;20001;-65
2024/04/16 03:09:32;;;;;;;2.10;0.60;;;7.00;84.20;;;;;;5348472;26;20001;-65
2024/04/16 03:11:57;;;;;;;0.65;0.60;;;6.90;84.40;;;;;;5360723;26;20001;-62
2024/04/16 03:14:23;;;;;;;0.50;0.50;;;6.90;84.60;;;;;;5357150;26;19996;-63
2024/04/16 03:16:49;;;;;;;1.58;0.63;;;6.90;84.50;;;;;;5356534;26;20494;-59
2024/04/16 03:19:15;;;;;;;0.50;0.50;;;6.90;84.60;;;;;;5358013;26;20019;-63
2024/04/16 03:21:40;;;;;;;1.20;0.60;;;6.80;84.70;;;;;;5360872;26;20009;-64
2024/04/16 03:24:06;;;;;;;1.40;0.73;;;6.80;84.80;;;;;;5345198;26;19996;-63
2024/04/16 03:26:32;;;;;;;0.50;0.50;;;6.80;84.80;;;;;;5355393;26;20004;-65
2024/04/16 03:28:57;;;;;;;0.75;0.70;;;6.80;84.80;;;;;;5346954;26;20008;-63
2024/04/16 03:31:23;;;;;;;0.93;0.50;;;6.80;84.80;;;;;;5351360;26;20016;-63
2024/04/16 03:33:48;;;;;;;0.98;0.50;;;6.80;84.90;;;;;;5359591;26;20462;-64
2024/04/16 03:36:14;;;;;;;1.77;0.60;;;6.80;85.00;;;;;;5352217;26;19997;-62
2024/04/16 03:38:39;;;;;;;0.68;0.50;;;6.70;85.30;;;;;;5370770;26;20024;-64
2024/04/16 03:41:05;;;;;;;1.65;0.70;;;6.70;85.60;;;;;;5354640;26;20017;-64
2024/04/16 03:43:31;;;;;;;2.67;0.68;;;6.70;85.80;;;;;;5362342;26;20466;-65
2024/04/16 03:45:59;;;;;;;1.00;0.50;;;6.70;85.90;;;;;;5354958;26;20460;-63
2024/04/16 03:48:25;;;;;;;0.50;0.50;;;6.70;85.90;;;;;;5370136;26;20019;-63
2024/04/16 03:50:51;;;;;;;1.15;0.73;;;6.70;86.10;;;;;;5351731;26;19997;-65
2024/04/16 03:53:17;;;;;;;2.10;0.80;;;6.70;86.20;;;;;;5368971;26;20486;-64
2024/04/16 03:55:43;;;;;;;1.40;0.90;;;6.70;86.40;;;;;;5359526;26;20027;-62
2024/04/16 03:58:09;;;;;;;1.55;0.80;;;6.80;86.40;;;;;;5356564;26;20000;-63
2024/04/16 04:03:19;;;;;;;1.30;0.80;;;6.90;86.30;;;;;;5364030;26;20390;-64
2024/04/16 04:05:45;;;;;;;2.10;0.90;;;6.90;86.30;;;;;;5360995;26;20000;-62
2024/04/16 04:08:11;;;;;;;3.60;0.80;;;6.90;86.30;;;;;;5356036;26;20320;-63
2024/04/16 04:10:37;;;;;;;1.30;0.80;;;7.00;86.20;;;;;;5358112;26;20013;-61
2024/04/16 04:13:03;;;;;;;1.73;0.90;;;7.00;86.20;;;;;;5359777;26;20091;-64
2024/04/16 04:15:28;;;;;;;1.80;1.15;;;7.00;86.30;;;;;;5345282;26;20464;-61
2024/04/16 04:17:54;;;;;;;2.05;0.93;;;7.00;86.30;;;;;;5354491;26;19996;-60
2024/04/16 04:20:19;;;;;;;0.88;0.80;;;7.00;86.30;;;;;;5364354;26;20003;-57
2024/04/16 04:22:45;;;;;;;1.60;0.80;;;7.00;86.30;;;;;;5363329;26;20019;-63
2024/04/16 04:25:10;;;;;;;2.78;0.80;;;7.00;86.50;;;;;;5363289;26;20024;-62
2024/04/16 04:27:37;;;;;;;1.60;0.70;;;7.00;86.70;;;;;;5361556;26;20051;-63
2024/04/16 04:30:03;;;;;;;2.58;0.90;;;7.00;86.80;;;;;;5366311;26;19996;-63
2024/04/16 04:32:30;;;;;;;5.65;1.10;;;7.00;87.20;;;;;;5365320;26;20023;-62
2024/04/16 04:34:55;;;;;;;4.10;1.17;;;7.00;87.70;;;;;;5361590;26;20362;-62
2024/04/16 04:37:21;;;;;;;3.45;1.20;;;7.00;88.10;;;;;;5361899;26;19996;-63
2024/04/16 04:39:46;;;;;;;1.13;0.80;;;7.00;88.50;;;;;;5361637;26;20720;-62
2024/04/16 04:42:12;;;;;;;1.52;0.95;;;7.00;88.60;;;;;;5361167;26;20000;-62
2024/04/16 04:44:38;;;;;;;1.60;0.90;;;7.00;88.80;;;;;;5368187;26;20004;-61
2024/04/16 04:47:04;;;;;;;2.83;1.00;;;7.00;88.90;;;;;;5356942;26;20332;-61
2024/04/16 04:49:29;;;;;;;2.25;0.90;;;6.90;89.10;;;;;;5362790;26;20022;-61
2024/04/16 04:51:55;;;;;;;0.80;0.80;;;7.00;89.20;;;;;;5355858;26;20011;-61
2024/04/16 04:54:20;;;;;;;3.65;1.00;;;7.00;89.40;;;;;;5358657;26;20004;-62
2024/04/16 04:56:47;;;;;;;2.22;1.00;;;7.00;89.70;;;;;;5362767;26;20012;-63
2024/04/16 04:59:12;;;;;;;2.40;1.10;;;6.90;89.80;;;;;;5358677;26;19997;-63
2024/04/16 05:01:38;;;;;;;3.80;1.30;;;7.00;89.80;;;;;;5354620;26;20523;-62
2024/04/16 05:04:03;;;;;;;4.40;1.17;;;7.00;89.90;;;;;;5367972;26;19996;-63
2024/04/16 05:06:29;;;;;;;4.20;1.30;;;7.00;90.00;;;;;;5353823;26;20015;-64
2024/04/16 05:08:54;;;;;;;3.45;1.38;;;7.00;90.00;;;;;;5366071;26;20118;-63
2024/04/16 05:11:20;;;;;;;2.13;1.20;;;7.10;90.00;;;;;;5360918;26;20076;-64
2024/04/16 05:13:45;;;;;;;4.35;1.52;;;7.10;90.00;;;;;;5366680;26;19997;-64
2024/04/16 05:16:11;;;;;;;2.22;1.30;;;7.10;90.00;;;;;;5360160;26;20467;-65
2024/04/16 05:18:36;;;;;;;3.55;1.48;;;7.10;90.00;;;;;;5366355;26;20016;-64
2024/04/16 05:21:02;;;;;;;3.20;1.30;;;7.10;90.20;;;;;;5363506;26;20004;-64
2024/04/16 05:23:28;;;;;;;1.35;1.13;;;7.10;90.40;;;;;;5355174;26;20033;-63
2024/04/16 05:25:55;;;;;;;3.85;1.38;;;7.10;90.50;;;;;;5357773;26;20008;-66
2024/04/16 05:28:20;;;;;;;2.03;0.98;;;7.10;90.60;;;;;;5365335;26;19999;-63
2024/04/16 05:30:47;;;;;;;0.85;0.70;;;7.00;90.70;;;;;;5360795;26;19997;-64
2024/04/16 05:33:12;;;;;;;1.85;0.77;;;6.90;90.70;;;;;;5362293;26;20074;-63
2024/04/16 05:35:38;;;;;;;2.17;0.88;;;6.90;90.70;;;;;;5371167;26;20338;-64
2024/04/16 05:38:04;;;;;;;1.30;0.80;;;6.90;90.70;;;;;;5358017;26;20044;-64
2024/04/16 05:40:30;;;;;;;1.63;0.90;;;6.90;90.90;;;;;;5360475;26;20001;-64
2024/04/16 05:42:56;;;;;;;1.73;0.90;;;6.80;90.90;;;;;;5363347;26;20028;-63
2024/04/16 05:45:21;;;;;;;0.73;0.70;;;6.80;91.00;;;;;;5356060;26;20000;-64
2024/04/16 05:47:47;;;;;;;1.92;0.80;;;6.80;91.00;;;;;;5370054;26;20000;-64
2024/04/16 05:50:12;;;;;;;1.27;0.70;;;6.80;91.10;;;;;;5362075;26;20008;-62
2024/04/16 05:52:38;;;;;;;0.80;0.80;;;6.90;91.10;;;;;;5363806;26;20008;-64
2024/04/16 05:55:05;;;;;;;0.90;0.90;;;6.90;91.10;;;;;;5362236;26;20000;-64
2024/04/16 05:57:31;;;;;;;1.40;0.95;;;6.90;91.10;;;;;;5366009;26;20002;-64
2024/04/16 05:59:57;;;;;;;2.78;0.90;;;7.00;91.10;;;;;;5357205;26;20009;-63
2024/04/16 06:02:22;;;;;;;2.88;0.98;;;7.00;91.10;;;;;;5372347;26;19992;-64
2024/04/16 06:04:48;;;;;;;1.10;0.93;;;7.00;91.10;;;;;;5364433;26;20011;-64
2024/04/16 06:07:13;;;;;;;2.75;1.08;;;7.10;91.10;;;;;;5356951;26;20431;-64
2024/04/16 06:09:39;;;;;;;2.17;1.00;;;7.10;91.00;;;;;;5349364;26;20015;-65
2024/04/16 06:12:05;;;;;;;1.55;1.00;;;7.20;91.10;;;;;;5359471;26;20000;-63
2024/04/16 06:14:30;;;;;;;2.33;1.00;;;7.20;91.10;;;;;;5366617;26;20019;-63
2024/04/16 06:16:56;;;;;;;2.88;1.27;;;7.30;91.20;;;;;;5366739;26;20000;-62
2024/04/16 06:19:21;;;;;;;2.05;1.20;;;7.30;91.20;;;;;;5363391;26;20012;-62
2024/04/16 06:21:47;;;;;;;2.15;1.00;;;7.40;91.20;;;;;;5361000;26;20005;-63
2024/04/16 06:24:12;;;;;;;2.15;1.00;;;7.50;91.20;;;;;;5357007;26;20479;-64
2024/04/16 06:26:38;;;;;;;2.53;1.15;;;7.50;91.20;;;;;;5362789;26;20001;-64
2024/04/16 06:29:03;;;;;;;1.90;1.10;;;7.60;91.20;;;;;;5361535;26;20521;-64
2024/04/16 06:31:30;;;;;;;1.50;1.00;;;7.70;91.30;;;;;;5357440;26;19997;-63
2024/04/16 06:33:55;;;;;;;2.67;1.20;;;7.70;91.30;;;;;;5370428;26;20016;-64
2024/04/16 06:36:21;;;;;;;4.30;1.33;;;7.80;91.30;;;;;;5352791;26;20364;-64
2024/04/16 06:38:46;;;;;;;4.03;1.48;;;7.80;91.30;;;;;;5358626;26;20548;-64
2024/04/16 06:41:12;;;;;;;4.38;1.90;;;7.90;91.40;;;;;;5364154;26;20462;-64
2024/04/16 06:43:37;;;;;;;2.58;1.20;;;8.00;91.40;;;;;;5366635;26;19996;-64
2024/04/16 06:46:03;;;;;;;6.70;1.77;;;8.10;91.50;;;;;;5359935;26;20084;-64
2024/04/16 06:48:30;;;;;;;2.85;1.38;;;8.20;91.50;;;;;;5360626;26;20023;-64
2024/04/16 06:50:56;;;;;;;3.22;1.27;;;8.30;91.50;;;;;;5349945;26;20041;-64
2024/04/16 06:53:22;;;;;;;3.90;1.30;;;8.40;91.50;;;;;;5364982;26;20478;-64
2024/04/16 06:56:04;;;;;;;4.32;1.50;;;8.60;91.70;;;;;;5358813;26;19997;-64
2024/04/16 06:58:30;;;;;;;2.75;1.40;;;8.70;91.20;;;;;;5356131;26;20011;-64
2024/04/16 07:00:56;;;;;;;8.50;1.73;;;8.80;91.20;;;;;;5356930;26;20376;-63
2024/04/16 07:03:23;;;;;;;6.63;1.55;;;9.10;91.20;;;;;;5351542;26;20525;-63
2024/04/16 07:05:49;;;;;;;3.85;1.38;;;9.70;91.50;;;;;;5358639;26;20008;-64
2024/04/16 07:08:15;;;;;;;1.95;1.10;;;10.80;90.10;;;;;;5359337;26;20008;-65
2024/04/16 07:10:40;;;;;;;5.95;1.35;;;11.20;88.20;;;;;;5364103;26;20001;-65
2024/04/16 07:13:06;;;;;;;4.30;1.23;;;10.90;86.80;;;;;;5360739;26;20028;-63
2024/04/16 07:15:33;;;;;;;5.85;1.60;;;10.50;87.40;;;;;;5367783;26;20008;-64
2024/04/16 07:17:59;;;;;;;5.72;1.45;;;10.10;88.60;;;;;;5364910;26;20312;-65
2024/04/16 07:20:25;;;;;;;3.97;1.60;;;9.90;89.70;;;;;;5358528;26;20008;-65
2024/04/16 07:22:51;;;;;;;7.55;1.83;;;9.90;90.10;;;;;;5364830;26;20041;-64
2024/04/16 07:25:17;;;;;;;5.43;1.85;;;9.90;90.20;;;;;;5350240;26;20252;-64
2024/04/16 07:27:42;;;;;;;7.93;1.90;;;9.70;90.40;;;;;;5363035;26;19993;-63
2024/04/16 07:30:08;;;;;;;6.93;1.63;;;9.70;90.60;;;;;;5365310;26;20015;-63
2024/04/16 07:32:33;;;;;;;5.07;1.58;;;9.60;90.80;;;;;;5360138;26;20015;-64
2024/04/16 07:34:59;;;;;;;6.43;2.03;;;9.50;91.00;;;;;;5367537;26;20033;-64
2024/04/16 07:37:25;;;;;;;5.70;1.90;;;9.40;91.10;;;;;;5367269;26;19997;-64
2024/04/16 07:39:50;;;;;;;5.95;1.80;;;9.40;91.20;;;;;;5362562;26;20008;-65
2024/04/16 07:42:16;;;;;;;6.38;1.92;;;9.40;91.40;;;;;;5361297;26;20015;-64
2024/04/16 07:44:42;;;;;;;3.15;1.55;;;9.30;91.40;;;;;;5364474;26;19992;-63
2024/04/16 07:47:07;;;;;;;4.28;1.70;;;9.30;91.50;;;;;;5362901;26;19996;-64
2024/04/16 07:49:33;;;;;;;3.83;1.30;;;9.30;91.60;;;;;;5358853;26;20532;-64
2024/04/16 07:51:58;;;;;;;6.22;1.80;;;9.50;91.80;;;;;;5367612;26;20000;-64
2024/04/16 07:54:24;;;;;;;6.18;1.85;;;9.70;91.30;;;;;;5366569;26;20099;-64
2024/04/16 07:56:50;;;;;;;4.05;1.40;;;9.90;91.30;;;;;;5367712;26;20001;-63
2024/04/16 07:59:16;;;;;;;2.78;1.50;;;10.00;91.00;;;;;;5363632;26;19996;-61
2024/04/16 08:01:41;;;;;;;3.20;1.40;;;11.10;90.50;;;;;;5374310;26;20008;-64
2024/04/16 08:04:07;;;;;;;6.15;1.45;;;12.00;88.60;;;;;;5363801;26;20008;-63
2024/04/16 08:06:32;;;;;;;5.78;1.85;;;13.00;84.60;;;;;;5357083;26;20004;-64
2024/04/16 08:08:58;;;;;;;4.70;1.33;;;12.50;83.40;;;;;;5370896;26;20427;-63
2024/04/16 08:11:24;;;;;;;4.50;1.40;;;11.80;84.90;;;;;;5362741;26;20491;-64
2024/04/16 08:13:50;;;;;;;6.85;1.42;;;11.30;86.60;;;;;;5367147;26;20019;-64
2024/04/16 08:16:16;;;;;;;6.20;1.63;;;11.00;87.90;;;;;;5360684;26;20023;-65
2024/04/16 08:18:42;;;;;;;8.95;1.40;;;10.70;89.00;;;;;;5358854;26;20008;-64
2024/04/16 08:21:07;;;;;;;6.55;1.50;;;10.60;89.90;;;;;;5360339;26;20000;-63
2024/04/16 08:23:33;;;;;;;4.75;1.48;;;10.50;90.10;;;;;;5362235;26;20085;-64
2024/04/16 08:26:03;;;;;;;4.18;1.10;;;10.60;90.30;;;;;;5353584;26;20497;-64
2024/04/16 08:28:30;;;;;;;4.93;1.30;;;10.80;90.00;;;;;;5366503;26;20352;-64
2024/04/16 08:31:01;;;;;;;2.83;1.27;;;10.80;89.80;;;;;;5373560;26;20443;-63
2024/04/16 08:33:27;;;;;;;4.93;1.30;;;10.80;89.70;;;;;;5372168;26;20004;-63
2024/04/16 08:35:53;;;;;;;3.47;1.20;;;10.90;89.80;;;;;;5370004;26;20437;-62
2024/04/16 08:38:19;;;;;;;4.93;1.48;;;10.90;89.80;;;;;;5373489;26;20011;-63
2024/04/16 08:40:45;;;;;;;2.97;1.23;;;10.90;89.70;;;;;;5369798;26;19997;-63
2024/04/16 08:43:12;;;;;;;4.50;1.08;;;10.80;89.70;;;;;;5371727;26;20004;-64
2024/04/16 08:45:38;;;;;;;2.22;0.90;;;10.80;89.60;;;;;;5368195;26;20557;-63
2024/04/16 08:48:05;;;;;;;3.70;0.80;;;10.70;89.60;;;;;;5365532;26;20024;-63
2024/04/16 08:50:33;;;;;;;2.70;0.90;;;10.60;90.00;;;;;;5355331;26;20001;-62
2024/04/16 08:53:00;;;;;;;2.10;0.80;;;10.60;89.30;;;;;;5372616;26;20000;-64
2024/04/16 08:55:30;;;;;;;3.10;0.70;;;10.60;89.20;;;;;;5361374;26;19996;-63
2024/04/16 08:57:56;;;;;;;1.65;0.80;;;10.50;88.90;;;;;;5366068;26;21706;-63
2024/04/16 09:00:22;;;;;;;1.30;0.77;;;10.40;88.90;;;;;;5366574;26;20361;-63
2024/04/16 09:02:50;;;;;;;2.88;0.90;;;10.50;89.20;;;;;;5369834;26;20490;-62
2024/04/16 09:05:16;;;;;;;2.33;0.80;;;10.60;89.20;;;;;;5361934;26;20032;-64
2024/04/16 09:07:42;;;;;;;3.17;0.90;;;10.80;88.70;;;;;;5360072;26;20004;-64
2024/04/16 09:10:22;;;;;;;2.80;0.90;;;11.00;88.40;;;;;;5365881;26;20001;-64
2024/04/16 09:12:48;;;;;;;3.83;0.90;;;11.10;87.90;;;;;;5369317;26;20004;-62
2024/04/16 09:15:16;;;;;;;2.90;0.90;;;11.00;87.70;;;;;;5356392;26;20107;-61
2024/04/16 09:17:45;;;;;;;4.40;1.27;;;10.80;87.90;;;;;;5369906;26;19996;-62
2024/04/16 09:20:17;;;;;;;3.70;1.00;;;10.70;88.30;;;;;;5367263;26;20040;-65
2024/04/16 09:22:42;;;;;;;6.15;1.00;;;10.70;88.80;;;;;;5356650;26;20375;-64
2024/04/16 09:25:08;;;;;;;3.08;0.90;;;10.80;88.90;;;;;;5374740;26;20003;-64
2024/04/16 09:27:34;;;;;;;2.83;1.02;;;10.90;88.70;;;;;;5368856;26;20358;-64
2024/04/16 09:30:07;;;;;;;2.15;0.80;;;10.90;88.40;;;;;;5362835;26;20005;-66
2024/04/16 09:32:33;;;;;;;2.22;0.75;;;10.90;88.60;;;;;;5364412;26;20007;-65
2024/04/16 09:34:59;;;;;;;2.00;0.80;;;11.00;88.70;;;;;;5356476;26;20011;-64
2024/04/16 09:37:24;;;;;;;3.65;1.13;;;10.90;88.60;;;;;;5358895;26;20342;-63
2024/04/16 09:39:52;;;;;;;3.63;0.95;;;10.80;88.70;;;;;;5362046;26;20319;-64
2024/04/16 09:42:21;;;;;;;2.80;0.90;;;10.70;89.20;;;;;;5357482;26;20295;-64
2024/04/16 09:44:48;;;;;;;3.10;0.82;;;10.80;89.30;;;;;;5356965;26;20004;-63
2024/04/16 09:47:16;;;;;;;2.38;0.85;;;10.70;89.50;;;;;;5355698;26;20342;-65
2024/04/16 09:49:42;;;;;;;5.28;1.05;;;10.80;89.70;;;;;;5356277;26;20001;-65
2024/04/16 09:52:09;;;;;;;1.88;0.95;;;10.70;89.70;;;;;;5366757;26;20029;-65
2024/04/16 09:54:35;;;;;;;3.65;0.80;;;10.60;89.70;;;;;;5364075;26;20008;-64
2024/04/16 09:57:03;;;;;;;2.75;0.70;;;10.50;90.00;;;;;;5345246;26;20000;-65
2024/04/16 09:59:29;;;;;;;2.42;0.80;;;10.50;90.10;;;;;;5354921;26;20081;-65
2024/04/16 10:01:56;;;;;;;2.55;1.00;;;10.50;90.20;;;;;;5360020;26;20016;-64
2024/04/16 10:04:22;;;;;;;2.47;0.77;;;10.50;90.20;;;;;;5367895;26;20077;-65
2024/04/16 10:06:49;;;;;;;1.92;0.70;;;10.60;90.20;;;;;;5372292;26;20007;-64
2024/04/16 10:09:19;;;;;;;1.38;0.70;;;10.60;90.40;;;;;;5364164;26;20033;-66
2024/04/16 10:11:47;;;;;;;5.38;0.90;;;10.70;90.10;;;;;;5360402;26;20012;-64
2024/04/16 10:14:13;;;;;;;1.27;0.63;;;10.80;90.10;;;;;;5354149;26;20004;-65
2024/04/16 10:16:41;;;;;;;4.63;1.13;;;10.80;90.00;;;;;;5367449;26;20016;-66
2024/04/16 10:19:06;;;;;;;1.77;0.70;;;10.90;90.00;;;;;;5352458;26;20526;-64
2024/04/16 10:21:42;;;;;;;2.05;0.70;;;10.90;89.90;;;;;;5361197;26;20011;-65
2024/04/16 10:24:10;;;;;;;3.30;0.95;;;10.90;89.80;;;;;;5357926;26;20012;-64
2024/04/16 10:26:39;;;;;;;3.65;0.90;;;10.90;89.80;;;;;;5369622;26;20082;-64
2024/04/16 10:29:15;;;;;;;1.92;0.80;;;10.90;89.70;;;;;;5351314;26;20008;-63
2024/04/16 10:31:43;;;;;;;2.38;0.90;;;10.90;90.10;;;;;;5354825;26;19997;-64
2024/04/16 10:34:21;;;;;;;1.10;0.70;;;10.90;89.90;;;;;;5372975;26;20007;-63
2024/04/16 10:36:47;;;;;;;3.40;1.08;;;11.00;89.80;;;;;;5360286;26;20011;-65
2024/04/16 10:39:14;;;;;;;4.50;0.90;;;11.00;89.50;;;;;;5367320;26;20015;-64
2024/04/16 10:41:53;;;;;;;4.63;1.00;;;11.10;89.20;;;;;;5371980;26;19996;-64
2024/04/16 10:44:20;;;;;;;1.92;0.80;;;11.20;89.00;;;;;;5356459;26;20004;-65
2024/04/16 10:46:47;;;;;;;4.13;0.80;;;11.40;88.90;;;;;;5361698;26;20010;-64
2024/04/16 10:49:13;;;;;;;0.90;0.60;;;11.60;88.40;;;;;;5366055;26;20000;-64
2024/04/16 10:51:39;;;;;;;1.38;0.70;;;11.70;87.60;;;;;;5356009;26;20336;-65
2024/04/16 10:54:07;;;;;;;1.98;0.70;;;11.80;87.40;;;;;;5361711;26;20015;-64
2024/04/16 10:56:36;;;;;;;3.47;0.80;;;11.90;87.00;;;;;;5360661;26;20005;-64
2024/04/16 10:59:07;;;;;;;2.63;0.88;;;11.90;86.40;;;;;;5364308;26;20009;-64
2024/04/16 11:01:37;;;;;;;0.98;0.57;;;11.90;86.10;;;;;;5375645;26;20000;-65
2024/04/16 11:04:17;;;;;;;1.77;0.65;;;11.90;85.10;;;;;;5356972;26;20015;-64
2024/04/16 11:06:45;;;;;;;1.65;0.60;;;11.80;84.80;;;;;;5365525;26;19996;-63
2024/04/16 11:09:10;;;;;;;1.55;0.50;;;11.70;84.80;;;;;;5374054;26;20000;-64
2024/04/16 11:11:38;;;;;;;2.40;0.85;;;11.80;85.00;;;;;;5370814;26;20492;-65
2024/04/16 11:14:06;;;;;;;0.50;0.50;;;11.80;84.80;;;;;;5369798;26;20399;-65
2024/04/16 11:16:32;;;;;;;1.58;0.60;;;11.90;84.40;;;;;;5357734;26;20000;-65
2024/04/16 11:18:58;;;;;;;2.25;0.50;;;12.10;84.10;;;;;;5367638;26;20019;-64
2024/04/16 11:21:32;;;;;;;0.60;0.40;;;12.20;83.70;;;;;;5357426;26;20001;-64
2024/04/16 11:23:57;;;;;;;2.80;0.40;;;12.40;83.20;;;;;;5369701;26;20011;-64
2024/04/16 11:26:24;;;;;;;3.25;0.47;;;12.70;82.90;;;;;;5346759;26;20196;-64
2024/04/16 11:28:50;;;;;;;1.65;0.50;;;12.90;82.20;;;;;;5354015;26;20448;-66
2024/04/16 11:31:17;;;;;;;0.85;0.40;;;13.00;81.30;;;;;;5356672;26;19996;-66
2024/04/16 11:33:43;;;;;;;0.57;0.50;;;13.10;80.10;;;;;;5366532;26;20011;-65
2024/04/16 11:36:10;;;;;;;2.42;0.60;;;13.10;79.50;;;;;;5369163;26;20015;-66
2024/04/16 11:38:36;;;;;;;1.65;0.52;;;13.10;79.20;;;;;;5370305;26;20474;-65
2024/04/16 11:41:03;;;;;;;2.08;0.50;;;13.30;77.80;;;;;;5370188;26;19993;-66
2024/04/16 11:43:30;;;;;;;0.50;0.47;;;13.40;77.10;;;;;;5363307;26;20000;-66
2024/04/16 11:45:56;;;;;;;1.70;0.40;;;13.50;75.80;;;;;;5371433;26;20001;-65
2024/04/16 11:48:21;;;;;;;0.70;0.40;;;13.60;74.20;;;;;;5369082;26;20769;-66
2024/04/16 11:50:48;;;;;;;1.50;0.57;;;13.70;74.30;;;;;;5370122;26;20004;-64
2024/04/16 11:53:13;;;;;;;0.90;0.50;;;13.70;74.60;;;;;;5391887;26;20525;-66
2024/04/16 11:55:39;;;;;;;0.88;0.40;;;13.70;74.10;;;;;;5367283;26;19992;-64
2024/04/16 11:58:07;;;;;;;1.35;0.50;;;13.70;73.60;;;;;;5371333;26;20008;-66
2024/04/16 12:00:33;;;;;;;0.45;0.43;;;13.50;72.50;;;;;;5358656;26;20430;-64
2024/04/16 12:03:01;;;;;;;0.95;0.40;;;13.40;72.50;;;;;;5361239;26;20052;-65
2024/04/16 12:05:26;;;;;;;0.82;0.45;;;13.30;73.00;;;;;;5355782;26;20013;-65
2024/04/16 12:07:52;;;;;;;1.38;0.40;;;13.20;72.90;;;;;;5363491;26;20474;-64
2024/04/16 12:10:18;;;;;;;0.57;0.30;;;13.30;72.90;;;;;;5370890;26;20055;-64
2024/04/16 12:12:43;;;;;;;2.38;0.40;;;13.40;72.50;;;;;;5378720;26;19996;-64
2024/04/16 12:15:09;;;;;;;0.95;0.50;;;13.60;72.30;;;;;;5370194;26;20007;-65
2024/04/16 12:17:34;;;;;;;0.95;0.40;;;13.80;72.20;;;;;;5357006;26;19997;-67
2024/04/16 12:20:00;;;;;;;1.90;0.52;;;14.10;71.30;;;;;;5368139;26;20003;-64
2024/04/16 12:22:25;;;;;;;0.60;0.40;;;14.10;70.30;;;;;;5374762;26;20008;-65
2024/04/16 12:24:51;;;;;;;0.52;0.30;;;14.40;70.40;;;;;;5358960;26;20005;-67
2024/04/16 12:27:16;;;;;;;0.88;0.40;;;14.40;69.80;;;;;;5365777;26;20000;-66
2024/04/16 12:29:43;;;;;;;0.65;0.45;;;14.20;69.40;;;;;;5376946;26;20015;-64
2024/04/16 12:32:09;;;;;;;1.23;0.30;;;13.70;70.60;;;;;;5371208;26;20007;-66
2024/04/16 12:34:34;;;;;;;0.30;0.30;;;13.10;72.30;;;;;;5381180;26;20011;-65
2024/04/16 12:37:00;;;;;;;1.10;0.50;;;12.70;73.70;;;;;;5367334;26;20008;-66
2024/04/16 12:39:25;;;;;;;0.63;0.40;;;12.40;74.70;;;;;;5377177;26;20450;-64
2024/04/16 12:41:51;;;;;;;0.90;0.40;;;12.30;75.50;;;;;;5367559;26;20452;-65
2024/04/16 12:44:17;;;;;;;0.30;0.30;;;12.40;76.00;;;;;;5384659;26;20426;-65
2024/04/16 12:46:42;;;;;;;1.02;0.40;;;12.60;76.40;;;;;;5367494;26;20062;-65
2024/04/16 12:49:08;;;;;;;0.43;0.40;;;12.70;76.80;;;;;;5382028;26;19996;-64
2024/04/16 12:51:33;;;;;;;1.35;0.50;;;12.80;77.20;;;;;;5365632;26;20000;-65